This is the latest recevied weather packets stored in our database for station/object KE6RLG. If no packets are shown the sender has not sent any weather packets the latest 10 day(s).
| Time | Temp. | Humidity | Pressure | Rain* | Wind** | Luminosity | Snow |
|---|---|---|---|---|---|---|---|
| 1777843819 | 17.22° C | 63% | 1013.9 hPa | 0 mm | - | 871 W/m² | - |
| 1777840819 | 17.78° C | 63% | 1014 hPa | 0 mm | - | 940 W/m² | - |
| 1777839319 | 17.22° C | 64% | 1014 hPa | 0 mm | - | 974 W/m² | - |
| 1777837220 | 17.22° C | 64% | 1014.1 hPa | 0 mm | - | 985 W/m² | - |
| 1777836920 | 17.22° C | 64% | 1014.2 hPa | 0 mm | - | 985 W/m² | - |
| 1777833318 | 17.78° C | 57% | 1014.4 hPa | 0 mm | - | 727 W/m² | - |
| 1777833021 | 17.78° C | 57% | 1014.4 hPa | 0 mm | - | 716 W/m² | - |
| 1777832418 | 17.78° C | 55% | 1014.5 hPa | 0 mm | - | 751 W/m² | - |
| 1777830019 | 17.22° C | 62% | 1014.5 hPa | 0 mm | - | 730 W/m² | - |
| 1777828219 | 16.11° C | 70% | 1014.5 hPa | 0 mm | - | 280 W/m² | - |
| 1777827619 | 16.11° C | 70% | 1014.3 hPa | 0 mm | - | 216 W/m² | - |
| 1777826119 | 15.56° C | 71% | 1014.2 hPa | 0 mm | - | 205 W/m² | - |
| 1777825520 | 15.56° C | 71% | 1014.1 hPa | 0 mm | - | 178 W/m² | - |
| 1777824620 | 15.56° C | 70% | 1014 hPa | 0 mm | - | 144 W/m² | - |
| 1777822220 | 15.56° C | 73% | 1013.9 hPa | 0 mm | - | 160 W/m² | - |
| 1777820720 | 15° C | 75% | 1013.8 hPa | 0 mm | - | 75 W/m² | - |
| 1777819821 | 15° C | 77% | 1013.6 hPa | 0 mm | - | 58 W/m² | - |
| 1777819221 | 15° C | 78% | 1013.5 hPa | 0 mm | - | 52 W/m² | - |
| 1777817121 | 14.44° C | 81% | 1013 hPa | 0 mm | - | 35 W/m² | - |
| 1777816521 | 14.44° C | 81% | 1012.9 hPa | 0 mm | - | 29 W/m² | - |
| 1777815921 | 14.44° C | 81% | 1012.8 hPa | 0 mm | - | 20 W/m² | - |
| 1777815621 | 14.44° C | 81% | 1012.7 hPa | 0 mm | - | 18 W/m² | - |
| 1777815022 | 14.44° C | 81% | 1012.6 hPa | 0 mm | - | 12 W/m² | - |
| 1777812023 | 14.44° C | 81% | 1012.5 hPa | 0 mm | - | 0 W/m² | - |
| 1777810563 | 14.44° C | 81% | 1012.4 hPa | 0 mm | - | 0 W/m² | - |
* Rain latest hour (hover to see other rain measurements)
** Current wind speed in m/s (hover to see current wind gust speed)